Time;durP1;ratioP1;P1;durP2;ratioP2;P2;SDS_P1;SDS_P2;PMS_P1;PMS_P2;Temp;Humidity;BMP_temperature;BMP_pressure;BME280_temperature;BME280_humidity;BME280_pressure;Samples;Min_cycle;Max_cycle;Signal;HPM_P1;HPM_P2
2022/08/10 00:00:21;;;;;;;4.18;1.90;;;18.30;76.00;;;;;;5062566;28;20317;-67
2022/08/10 00:02:53;;;;;;;3.72;1.88;;;18.30;75.80;;;;;;5067617;28;20021;-67
2022/08/10 00:05:19;;;;;;;5.15;1.95;;;18.30;76.00;;;;;;5060143;28;20112;-67
2022/08/10 00:07:46;;;;;;;5.78;2.20;;;18.30;76.00;;;;;;5069546;28;20040;-67
2022/08/10 00:10:13;;;;;;;4.55;2.00;;;18.20;76.10;;;;;;5082299;28;20032;-67
2022/08/10 00:12:40;;;;;;;4.07;2.13;;;18.10;76.40;;;;;;5081076;28;20047;-67
2022/08/10 00:15:07;;;;;;;5.65;2.05;;;18.10;76.50;;;;;;5076993;28;20103;-66
2022/08/10 00:17:33;;;;;;;7.32;2.05;;;18.10;76.30;;;;;;5071348;28;20029;-67
2022/08/10 00:19:59;;;;;;;5.22;2.38;;;18.10;76.60;;;;;;5071640;28;20036;-66
2022/08/10 00:22:25;;;;;;;4.00;2.30;;;18.10;76.60;;;;;;5072728;28;20070;-67
2022/08/10 00:24:50;;;;;;;5.63;2.28;;;18.00;76.80;;;;;;5061251;28;20036;-67
2022/08/10 00:27:16;;;;;;;4.55;2.08;;;18.00;76.90;;;;;;5079814;28;20066;-67
2022/08/10 00:29:42;;;;;;;6.22;2.20;;;17.90;76.90;;;;;;5057425;28;20017;-67
2022/08/10 00:32:07;;;;;;;5.32;2.05;;;17.90;77.10;;;;;;5074897;28;20334;-67
2022/08/10 00:34:33;;;;;;;4.72;1.92;;;17.90;77.30;;;;;;5074756;28;20370;-67
2022/08/10 00:37:00;;;;;;;5.90;2.13;;;17.80;77.30;;;;;;5073653;28;20295;-67
2022/08/10 00:39:27;;;;;;;6.60;2.00;;;17.80;77.50;;;;;;5067467;28;20032;-67
2022/08/10 00:41:53;;;;;;;4.88;2.15;;;17.80;77.40;;;;;;5074560;28;20028;-67
2022/08/10 00:44:19;;;;;;;6.13;2.10;;;17.80;77.50;;;;;;5074828;28;20103;-67
2022/08/10 00:46:45;;;;;;;7.03;2.30;;;17.80;77.60;;;;;;5080075;28;20147;-67
2022/08/10 00:49:11;;;;;;;4.60;2.17;;;17.80;77.20;;;;;;5071857;28;20020;-66
2022/08/10 00:51:37;;;;;;;6.35;2.30;;;17.90;77.00;;;;;;5057948;28;20487;-67
2022/08/10 00:54:03;;;;;;;5.40;2.10;;;17.90;77.10;;;;;;5074017;28;20028;-67
2022/08/10 00:56:29;;;;;;;7.32;2.17;;;17.90;77.20;;;;;;5062773;28;20033;-67
2022/08/10 00:58:54;;;;;;;4.03;2.20;;;17.80;77.50;;;;;;5067794;28;20024;-67
2022/08/10 01:01:20;;;;;;;4.43;2.50;;;17.70;77.40;;;;;;5061041;28;20443;-67
2022/08/10 01:03:46;;;;;;;6.03;2.20;;;17.70;77.80;;;;;;5060745;28;20360;-66
2022/08/10 01:06:20;;;;;;;4.90;2.67;;;17.70;77.80;;;;;;5061426;28;20132;-67
2022/08/10 01:08:57;;;;;;;;;;;17.70;77.70;;;;;;5068335;28;20358;-66
2022/08/10 01:11:37;;;;;;;5.45;2.30;;;17.60;78.10;;;;;;5061376;28;19913;-65
2022/08/10 01:14:28;;;;;;;5.97;2.70;;;17.60;78.00;;;;;;5065627;28;20012;-66
2022/08/10 01:17:06;;;;;;;5.65;2.75;;;17.60;78.20;;;;;;5069810;28;20287;-66
2022/08/10 01:19:46;;;;;;;6.00;2.40;;;17.60;78.10;;;;;;5068961;28;20040;-66
2022/08/10 01:22:40;;;;;;;5.22;2.17;;;17.60;78.20;;;;;;5061745;28;20029;-66
2022/08/10 01:25:24;;;;;;;6.65;2.50;;;17.60;78.20;;;;;;5067815;28;20025;-66
2022/08/10 01:27:58;;;;;;;4.57;2.70;;;17.60;78.30;;;;;;5064044;28;20414;-66
2022/08/10 01:30:28;;;;;;;5.75;2.15;;;17.60;78.50;;;;;;5057156;28;20071;-66
2022/08/10 01:33:24;;;;;;;5.32;2.28;;;17.50;78.50;;;;;;5070260;28;20021;-66
2022/08/10 01:35:56;;;;;;;4.97;2.33;;;17.50;78.60;;;;;;5067716;28;20036;-66
2022/08/10 01:38:33;;;;;;;4.88;2.38;;;17.40;78.90;;;;;;5074666;28;20348;-66
2022/08/10 01:41:06;;;;;;;5.25;2.45;;;17.40;78.90;;;;;;5068885;28;20056;-65
2022/08/10 01:43:36;;;;;;;5.65;2.47;;;17.40;79.00;;;;;;5073674;28;20031;-65
2022/08/10 01:46:03;;;;;;;5.70;2.60;;;17.30;79.30;;;;;;5063889;28;20112;-65
2022/08/10 01:48:35;;;;;;;5.80;2.30;;;17.40;79.40;;;;;;5076431;28;20414;-65
2022/08/10 01:51:29;;;;;;;8.27;2.60;;;17.40;79.10;;;;;;5074342;28;20082;-66
2022/08/10 01:54:18;;;;;;;6.30;2.55;;;17.40;79.30;;;;;;5069976;28;20338;-66
2022/08/10 01:56:49;;;;;;;7.45;2.50;;;17.40;79.50;;;;;;5074434;28;20111;-66
2022/08/10 01:59:29;;;;;;;5.28;2.72;;;17.40;79.60;;;;;;5072162;28;20028;-66
2022/08/10 02:02:00;;;;;;;4.57;2.60;;;17.40;79.50;;;;;;5079697;28;20039;-67
2022/08/10 02:04:28;;;;;;;5.55;3.03;;;17.40;79.70;;;;;;5062569;28;20100;-67
2022/08/10 02:06:54;;;;;;;7.65;3.05;;;17.30;79.90;;;;;;5063825;28;20364;-67
2022/08/10 02:09:26;;;;;;;7.15;2.83;;;17.30;80.00;;;;;;5057507;28;20460;-67
2022/08/10 02:11:54;;;;;;;7.32;2.70;;;17.30;80.00;;;;;;5058578;28;20087;-67
2022/08/10 02:14:21;;;;;;;5.30;2.90;;;17.30;80.30;;;;;;5062123;28;20021;-67
2022/08/10 02:16:50;;;;;;;6.57;3.13;;;17.20;80.40;;;;;;5067686;28;20056;-67
2022/08/10 02:19:22;;;;;;;6.10;2.63;;;17.20;80.60;;;;;;5074215;28;20032;-66
2022/08/10 02:21:50;;;;;;;5.07;2.80;;;17.20;80.60;;;;;;5072634;28;20108;-67
2022/08/10 02:24:19;;;;;;;7.53;2.92;;;17.10;81.00;;;;;;5059419;28;20112;-66
2022/08/10 02:26:46;;;;;;;6.43;2.58;;;17.10;81.20;;;;;;5065299;28;20039;-67
2022/08/10 02:29:15;;;;;;;7.13;2.88;;;17.10;81.30;;;;;;5067015;28;20036;-66
2022/08/10 02:31:42;;;;;;;6.72;2.60;;;17.10;81.40;;;;;;5067095;28;20024;-67
2022/08/10 02:34:12;;;;;;;5.30;2.88;;;17.00;81.50;;;;;;5060555;28;20418;-67
2022/08/10 02:36:45;;;;;;;5.82;2.70;;;17.10;81.50;;;;;;5057817;28;20028;-67
2022/08/10 02:39:12;;;;;;;4.80;2.70;;;17.10;81.60;;;;;;5057269;28;20060;-66
2022/08/10 02:41:54;;;;;;;6.25;2.90;;;17.10;81.50;;;;;;5075149;28;20035;-67
2022/08/10 02:44:28;;;;;;;4.70;2.60;;;17.00;81.80;;;;;;5076882;28;20021;-67
2022/08/10 02:47:05;;;;;;;5.93;2.92;;;16.90;82.00;;;;;;5069633;28;20051;-67
2022/08/10 02:49:48;;;;;;;6.53;2.85;;;16.90;82.40;;;;;;5072183;28;20024;-67
2022/08/10 02:52:20;;;;;;;6.80;2.65;;;16.80;82.40;;;;;;5076711;28;20024;-67
2022/08/10 02:55:17;;;;;;;4.55;2.55;;;16.80;82.70;;;;;;5064693;28;20028;-67
2022/08/10 02:57:49;;;;;;;5.28;2.97;;;16.70;82.80;;;;;;5058253;28;20382;-67
2022/08/10 03:00:15;;;;;;;5.60;2.85;;;16.70;83.20;;;;;;5075117;28;20033;-67
2022/08/10 03:02:46;;;;;;;8.27;3.35;;;16.70;83.20;;;;;;5060611;28;20040;-67
2022/08/10 03:05:14;;;;;;;5.97;2.78;;;16.60;83.40;;;;;;5059263;28;20036;-67
2022/08/10 03:08:03;;;;;;;7.18;2.80;;;16.50;83.70;;;;;;5063402;28;20049;-67
2022/08/10 03:10:32;;;;;;;5.53;2.72;;;16.50;83.90;;;;;;5074922;28;20028;-67
2022/08/10 03:13:01;;;;;;;6.10;2.83;;;16.50;83.70;;;;;;5076171;28;20024;-67
2022/08/10 03:15:30;;;;;;;4.78;2.67;;;16.50;83.70;;;;;;5077266;28;20036;-67
2022/08/10 03:17:57;;;;;;;6.18;2.83;;;16.60;83.50;;;;;;5072021;28;20079;-67
2022/08/10 03:20:24;;;;;;;7.18;3.10;;;16.60;83.20;;;;;;5057401;28;20033;-67
2022/08/10 03:22:51;;;;;;;7.10;3.22;;;16.70;82.70;;;;;;5067279;28;20036;-67
2022/08/10 03:25:20;;;;;;;6.93;2.83;;;16.80;82.60;;;;;;5073628;28;20032;-67
2022/08/10 03:27:47;;;;;;;5.28;2.72;;;16.70;82.60;;;;;;5073824;28;20025;-67
2022/08/10 03:30:13;;;;;;;6.55;3.33;;;16.70;82.60;;;;;;5074861;28;20032;-67
2022/08/10 03:32:41;;;;;;;6.40;2.80;;;16.70;82.60;;;;;;5074738;28;20029;-67
2022/08/10 03:35:08;;;;;;;6.28;2.90;;;16.60;83.00;;;;;;5074065;28;20021;-67
2022/08/10 03:37:34;;;;;;;5.07;2.90;;;16.50;83.00;;;;;;5074435;28;20052;-67
2022/08/10 03:40:00;;;;;;;5.55;2.70;;;16.40;83.10;;;;;;5073103;28;20016;-67
2022/08/10 03:42:27;;;;;;;5.20;3.00;;;16.40;83.30;;;;;;5075687;28;20029;-67
2022/08/10 03:44:54;;;;;;;6.53;2.90;;;16.40;83.30;;;;;;5062778;28;20037;-67
2022/08/10 03:47:23;;;;;;;5.95;2.78;;;16.30;83.50;;;;;;5057967;28;20430;-67
2022/08/10 03:49:50;;;;;;;5.22;2.90;;;16.20;83.60;;;;;;5064087;28;20029;-67
2022/08/10 03:52:17;;;;;;;7.20;3.00;;;16.10;83.90;;;;;;5076095;28;20100;-67
2022/08/10 03:54:43;;;;;;;5.13;2.55;;;16.10;83.90;;;;;;5073574;28;20020;-67
2022/08/10 03:57:09;;;;;;;5.18;2.95;;;16.10;83.90;;;;;;5064072;28;20361;-67
2022/08/10 03:59:35;;;;;;;6.10;2.75;;;16.10;83.60;;;;;;5071175;28;20040;-67
2022/08/10 04:02:02;;;;;;;4.30;2.40;;;16.20;83.20;;;;;;5076193;28;20058;-67
2022/08/10 04:04:28;;;;;;;4.68;2.67;;;16.20;82.90;;;;;;5075722;28;20298;-67
2022/08/10 04:06:56;;;;;;;6.90;2.67;;;16.20;82.70;;;;;;5074656;28;20093;-67
2022/08/10 04:09:25;;;;;;;6.90;2.90;;;16.20;82.80;;;;;;5058511;28;20131;-67
2022/08/10 04:11:51;;;;;;;5.03;2.20;;;16.40;82.30;;;;;;5074267;28;20016;-67
2022/08/10 04:14:17;;;;;;;8.00;3.00;;;16.40;82.10;;;;;;5078835;28;20091;-67
2022/08/10 04:16:42;;;;;;;5.20;2.70;;;16.50;81.80;;;;;;5073384;28;20108;-67
2022/08/10 04:19:09;;;;;;;6.07;2.92;;;16.60;81.40;;;;;;5071147;28;20425;-67
2022/08/10 04:21:42;;;;;;;8.80;3.00;;;16.70;80.90;;;;;;5080039;28;20032;-67
2022/08/10 04:24:13;;;;;;;7.65;2.88;;;16.90;80.50;;;;;;5074958;28;20433;-67
2022/08/10 04:26:38;;;;;;;7.43;2.72;;;17.00;80.20;;;;;;5055727;28;20053;-67
2022/08/10 04:29:05;;;;;;;6.03;3.13;;;17.00;80.20;;;;;;5056034;28;20063;-67
2022/08/10 04:31:32;;;;;;;8.00;2.72;;;17.00;80.00;;;;;;5077282;28;20143;-66
2022/08/10 04:34:00;;;;;;;5.63;2.90;;;16.90;80.20;;;;;;5073963;28;20021;-66
2022/08/10 04:36:26;;;;;;;7.85;2.53;;;16.90;80.20;;;;;;5067756;28;20908;-65
2022/08/10 04:38:53;;;;;;;5.22;2.53;;;16.90;80.20;;;;;;5079043;28;20329;-65
2022/08/10 04:41:19;;;;;;;5.50;2.60;;;16.90;80.00;;;;;;5072558;28;20024;-65
2022/08/10 04:43:45;;;;;;;4.05;2.38;;;16.90;80.00;;;;;;5075795;28;20321;-66
2022/08/10 04:46:11;;;;;;;4.90;2.50;;;16.80;80.30;;;;;;5071126;28;20060;-66
2022/08/10 04:48:36;;;;;;;6.28;2.42;;;16.70;80.40;;;;;;5068951;28;20056;-67
2022/08/10 04:51:02;;;;;;;4.75;2.67;;;16.70;80.20;;;;;;5058749;28;20067;-67
2022/08/10 04:53:28;;;;;;;8.25;2.35;;;16.80;80.20;;;;;;5078429;28;20461;-67
2022/08/10 04:55:54;;;;;;;6.82;2.90;;;16.80;79.90;;;;;;5071561;28;20095;-67
2022/08/10 04:58:19;;;;;;;7.50;3.08;;;16.90;79.80;;;;;;5072116;28;20035;-66
2022/08/10 05:00:45;;;;;;;7.35;2.40;;;16.90;79.90;;;;;;5074358;28;20028;-67
2022/08/10 05:03:10;;;;;;;4.22;2.20;;;16.90;79.60;;;;;;5072760;28;20071;-67
2022/08/10 05:05:36;;;;;;;6.60;2.45;;;17.00;79.30;;;;;;5069099;28;20039;-67
2022/08/10 05:08:02;;;;;;;7.03;2.30;;;17.00;79.30;;;;;;5066501;28;20116;-67
2022/08/10 05:10:28;;;;;;;6.22;2.80;;;17.00;79.40;;;;;;5062993;28;20947;-67
2022/08/10 05:12:53;;;;;;;7.70;2.20;;;16.90;79.40;;;;;;5072517;28;20019;-66
2022/08/10 05:15:21;;;;;;;5.45;2.20;;;17.00;79.00;;;;;;5078936;28;20078;-66
2022/08/10 05:17:50;;;;;;;6.65;2.28;;;17.10;78.70;;;;;;5084408;28;20044;-66
2022/08/10 05:20:16;;;;;;;5.32;2.30;;;17.20;78.60;;;;;;5070267;28;20032;-65
2022/08/10 05:22:43;;;;;;;4.55;2.60;;;17.20;78.60;;;;;;5076788;28;20112;-67
2022/08/10 05:25:14;;;;;;;4.05;2.17;;;17.20;78.70;;;;;;5077628;28;20085;-67
2022/08/10 05:27:41;;;;;;;4.57;2.60;;;17.20;78.20;;;;;;5084995;28;20023;-66
2022/08/10 05:30:10;;;;;;;6.95;2.60;;;17.30;78.20;;;;;;5076713;28;20418;-66
2022/08/10 05:32:36;;;;;;;5.05;1.95;;;17.40;77.80;;;;;;5075124;28;20053;-65
2022/08/10 05:35:02;;;;;;;11.23;2.50;;;17.40;78.00;;;;;;5081224;28;20095;-66
2022/08/10 05:37:29;;;;;;;4.97;2.22;;;17.50;77.80;;;;;;5084559;28;20614;-66
2022/08/10 05:39:55;;;;;;;4.97;2.50;;;17.60;77.40;;;;;;5066014;28;20027;-66
2022/08/10 05:42:22;;;;;;;7.32;2.20;;;17.70;77.10;;;;;;5072590;28;20032;-66
2022/08/10 05:44:48;;;;;;;5.25;2.30;;;17.80;76.50;;;;;;5073172;28;20073;-66
2022/08/10 05:47:14;;;;;;;7.72;2.30;;;18.00;76.20;;;;;;5074588;28;20029;-66
2022/08/10 05:49:40;;;;;;;4.60;2.10;;;18.00;76.20;;;;;;5079174;28;20111;-66
2022/08/10 05:52:05;;;;;;;4.32;2.40;;;18.10;75.80;;;;;;5063349;28;20017;-67
2022/08/10 05:54:31;;;;;;;6.25;2.28;;;18.20;75.60;;;;;;5075726;28;20473;-67
2022/08/10 05:56:57;;;;;;;6.07;2.40;;;18.30;75.10;;;;;;5067853;28;20052;-66
2022/08/10 05:59:30;;;;;;;6.22;2.13;;;18.40;75.10;;;;;;5063924;28;20104;-66
2022/08/10 06:02:01;;;;;;;5.80;2.08;;;18.50;74.60;;;;;;5081013;28;20317;-66
2022/08/10 06:04:36;;;;;;;5.00;2.20;;;18.60;74.30;;;;;;5068861;28;20024;-66
2022/08/10 06:07:04;;;;;;;5.40;2.20;;;18.60;74.20;;;;;;5079849;28;20024;-65
2022/08/10 06:09:31;;;;;;;6.93;2.10;;;18.70;74.20;;;;;;5069560;28;20047;-66
2022/08/10 06:11:59;;;;;;;6.95;2.55;;;18.80;74.00;;;;;;5087561;28;20013;-66
2022/08/10 06:17:14;;;;;;;4.97;2.40;;;18.90;73.60;;;;;;5067368;28;20066;-66
2022/08/10 06:19:42;;;;;;;18.90;3.40;;;19.00;73.20;;;;;;5075069;28;20031;-66
2022/08/10 06:22:09;;;;;;;5.13;2.15;;;19.00;73.10;;;;;;5074740;28;20740;-66
2022/08/10 06:24:39;;;;;;;7.45;2.80;;;19.10;73.00;;;;;;5072989;28;20071;-66
2022/08/10 06:27:05;;;;;;;7.47;3.05;;;19.20;72.60;;;;;;5069305;28;20052;-66
2022/08/10 06:29:34;;;;;;;6.53;2.10;;;19.30;72.80;;;;;;5062358;28;20103;-66
2022/08/10 06:32:03;;;;;;;12.82;2.60;;;19.30;72.90;;;;;;5065592;28;20020;-67
2022/08/10 06:34:32;;;;;;;6.40;2.20;;;19.50;72.70;;;;;;5063811;28;20294;-66
2022/08/10 06:37:01;;;;;;;8.85;2.30;;;19.50;72.60;;;;;;5071242;28;20056;-71
2022/08/10 06:39:27;;;;;;;6.55;2.30;;;19.60;72.90;;;;;;5078900;28;20437;-67
2022/08/10 06:41:59;;;;;;;7.15;2.60;;;19.80;73.10;;;;;;5070434;28;20036;-67
2022/08/10 06:44:31;;;;;;;7.50;2.42;;;19.80;72.00;;;;;;5071794;28;20317;-67
2022/08/10 06:46:58;;;;;;;9.57;2.08;;;19.90;72.40;;;;;;5071691;28;20112;-67
2022/08/10 06:49:24;;;;;;;6.35;2.17;;;19.90;72.40;;;;;;5068706;28;20550;-67
2022/08/10 06:51:54;;;;;;;6.50;2.20;;;20.00;72.30;;;;;;5074014;28;20021;-66
2022/08/10 06:54:25;;;;;;;6.22;2.30;;;20.00;72.60;;;;;;5066867;28;20087;-66
2022/08/10 06:56:54;;;;;;;5.97;2.00;;;20.10;71.70;;;;;;5086448;28;20029;-66
2022/08/10 06:59:26;;;;;;;5.53;2.03;;;20.20;71.70;;;;;;5073180;28;20086;-66
2022/08/10 07:02:02;;;;;;;5.10;2.00;;;20.20;71.20;;;;;;5063061;28;20020;-67
2022/08/10 07:04:50;;;;;;;5.68;2.13;;;20.30;71.70;;;;;;5073920;28;20313;-67
2022/08/10 07:07:22;;;;;;;4.93;2.10;;;20.50;71.80;;;;;;5076650;28;20032;-67
2022/08/10 07:09:51;;;;;;;12.07;3.13;;;20.60;70.60;;;;;;5076449;28;20041;-67
2022/08/10 07:12:22;;;;;;;5.35;1.92;;;20.70;70.70;;;;;;5077911;28;20027;-67
2022/08/10 07:14:50;;;;;;;6.22;2.10;;;20.80;70.60;;;;;;5070631;28;20402;-66
2022/08/10 07:17:19;;;;;;;5.63;2.10;;;20.90;70.20;;;;;;5076576;28;20157;-67
2022/08/10 07:19:48;;;;;;;5.82;2.13;;;21.10;70.00;;;;;;5077677;28;20405;-67
2022/08/10 07:22:15;;;;;;;7.63;1.98;;;21.20;70.20;;;;;;5077609;28;20033;-67
2022/08/10 07:24:42;;;;;;;6.30;2.10;;;21.30;69.70;;;;;;5070021;28;20052;-67
2022/08/10 07:27:09;;;;;;;6.32;2.00;;;21.30;68.90;;;;;;5057235;28;20164;-66
2022/08/10 07:29:35;;;;;;;6.57;2.17;;;21.30;69.10;;;;;;5057435;28;20394;-67
2022/08/10 07:32:02;;;;;;;6.55;1.90;;;21.30;68.10;;;;;;5057240;28;20035;-67
2022/08/10 07:34:30;;;;;;;5.75;1.95;;;21.40;68.60;;;;;;5056504;28;20025;-67
2022/08/10 07:37:02;;;;;;;4.82;2.00;;;21.60;68.20;;;;;;5059872;28;20082;-67
2022/08/10 07:39:30;;;;;;;8.30;2.17;;;21.70;67.70;;;;;;5076025;28;20077;-66
2022/08/10 07:41:57;;;;;;;6.60;2.08;;;21.90;67.30;;;;;;5077233;28;20111;-66
2022/08/10 07:44:26;;;;;;;7.30;1.90;;;22.10;66.70;;;;;;5075072;28;20024;-66
2022/08/10 07:46:55;;;;;;;6.03;1.88;;;22.30;66.30;;;;;;5061446;28;20123;-66
2022/08/10 07:49:25;;;;;;;6.55;1.92;;;22.60;65.90;;;;;;5057107;28;20053;-66
2022/08/10 07:51:52;;;;;;;4.63;1.77;;;23.40;64.30;;;;;;5068815;28;20043;-66
2022/08/10 07:54:21;;;;;;;5.30;1.67;;;24.30;61.80;;;;;;5074630;28;20129;-66
2022/08/10 07:56:50;;;;;;;4.60;1.70;;;25.20;60.30;;;;;;5060434;28;20021;-66
2022/08/10 07:59:21;;;;;;;5.18;1.55;;;26.10;59.30;;;;;;5067082;28;20483;-67
2022/08/10 08:01:53;;;;;;;4.15;1.60;;;26.80;56.50;;;;;;5072839;28;20032;-66
2022/08/10 08:04:23;;;;;;;2.95;1.40;;;26.70;56.20;;;;;;5069640;28;20032;-66
2022/08/10 08:06:50;;;;;;;9.63;1.60;;;27.10;56.50;;;;;;5071864;28;20032;-66
2022/08/10 08:09:19;;;;;;;9.07;1.95;;;27.50;55.70;;;;;;5073936;28;20052;-65
2022/08/10 08:11:46;;;;;;;3.65;1.52;;;27.40;55.70;;;;;;5059919;28;20044;-65
2022/08/10 08:14:14;;;;;;;5.25;1.90;;;27.50;54.80;;;;;;5056536;28;20032;-65
2022/08/10 08:16:44;;;;;;;5.20;1.67;;;27.80;55.30;;;;;;5056817;28;20104;-65
2022/08/10 08:19:10;;;;;;;5.22;1.45;;;27.80;54.90;;;;;;5055592;28;20028;-66
2022/08/10 08:21:38;;;;;;;6.15;1.50;;;27.60;55.00;;;;;;5061225;28;20325;-66
2022/08/10 08:24:05;;;;;;;5.55;1.70;;;27.90;54.40;;;;;;5061024;28;20028;-66
2022/08/10 08:26:32;;;;;;;4.55;1.60;;;28.20;54.10;;;;;;5053473;28;20063;-66
2022/08/10 08:28:59;;;;;;;7.68;1.90;;;28.60;52.80;;;;;;5054765;28;20529;-66
2022/08/10 08:31:26;;;;;;;5.68;1.40;;;28.90;52.20;;;;;;5065391;28;20044;-66
2022/08/10 08:33:58;;;;;;;6.55;1.58;;;28.10;53.80;;;;;;5065151;28;20016;-66
2022/08/10 08:36:25;;;;;;;3.95;1.38;;;28.50;53.10;;;;;;5075837;28;20042;-66
2022/08/10 08:38:51;;;;;;;5.43;1.65;;;28.50;52.00;;;;;;5075340;28;20026;-66
2022/08/10 08:41:35;;;;;;;6.03;1.58;;;28.40;52.00;;;;;;5073558;28;20031;-67
2022/08/10 08:44:13;;;;;;;7.78;1.45;;;28.20;52.70;;;;;;5070178;28;20076;-66
2022/08/10 08:47:11;;;;;;;6.07;1.50;;;28.50;52.90;;;;;;5075396;28;20142;-66
2022/08/10 08:50:14;;;;;;;4.85;1.80;;;28.50;52.20;;;;;;5029184;28;20048;-66
2022/08/10 08:53:06;;;;;;;8.32;1.50;;;28.50;51.60;;;;;;5076111;28;20028;-66
2022/08/10 08:56:01;;;;;;;2.90;1.20;;;28.90;51.70;;;;;;5068247;28;20052;-67
2022/08/10 08:58:51;;;;;;;6.28;1.60;;;29.20;51.00;;;;;;5065126;28;20024;-67
2022/08/10 09:01:51;;;;;;;3.25;1.20;;;29.70;50.20;;;;;;5072828;28;20032;-67
2022/08/10 09:04:48;;;;;;;6.03;1.40;;;29.90;50.40;;;;;;5074814;28;20032;-67
2022/08/10 09:07:29;;;;;;;5.03;1.40;;;30.30;49.30;;;;;;5072947;28;20138;-66
2022/08/10 09:10:19;;;;;;;4.32;1.30;;;30.60;48.10;;;;;;5068927;28;20032;-66
2022/08/10 09:13:10;;;;;;;5.60;1.10;;;30.70;48.10;;;;;;5072845;28;20024;-64
2022/08/10 09:15:53;;;;;;;4.35;1.25;;;30.50;47.80;;;;;;5074744;28;20392;-64
2022/08/10 09:18:46;;;;;;;3.83;1.38;;;30.10;48.10;;;;;;5073371;28;20064;-65
2022/08/10 09:21:37;;;;;;;4.30;1.40;;;29.90;48.50;;;;;;5054991;28;20033;-64
2022/08/10 09:24:19;;;;;;;5.75;1.20;;;30.10;49.00;;;;;;5069218;28;20421;-64
2022/08/10 09:26:52;;;;;;;4.30;1.40;;;29.80;46.80;;;;;;5054603;28;20037;-67
2022/08/10 09:29:24;;;;;;;;;;;29.80;47.80;;;;;;5056169;28;20025;-66
2022/08/10 09:32:14;;;;;;;4.18;1.33;;;29.50;46.90;;;;;;5074353;28;19916;-67
2022/08/10 09:34:57;;;;;;;4.32;1.10;;;29.00;47.90;;;;;;5075410;28;20082;-67
2022/08/10 09:37:29;;;;;;;5.82;1.17;;;29.30;47.50;;;;;;5075607;28;20040;-66
2022/08/10 09:40:13;;;;;;;5.80;1.42;;;29.40;48.10;;;;;;5070930;28;20074;-66
2022/08/10 09:43:01;;;;;;;3.60;1.30;;;29.20;49.30;;;;;;5075509;28;20036;-67
2022/08/10 09:45:53;;;;;;;3.00;1.30;;;29.30;47.80;;;;;;5064939;28;20029;-67
2022/08/10 09:48:59;;;;;;;3.30;1.23;;;29.70;49.00;;;;;;5055948;28;20036;-67
2022/08/10 09:51:47;;;;;;;4.65;1.40;;;30.40;45.30;;;;;;5075438;28;20028;-66
2022/08/10 09:54:38;;;;;;;4.05;1.10;;;30.40;45.60;;;;;;5075559;28;20031;-66
2022/08/10 09:57:16;;;;;;;3.50;1.20;;;30.40;45.70;;;;;;5077390;28;20039;-66
2022/08/10 10:00:09;;;;;;;5.95;1.10;;;30.80;45.30;;;;;;5079157;28;20028;-67
2022/08/10 10:02:41;;;;;;;3.30;1.00;;;31.10;45.10;;;;;;5078988;28;20117;-66
2022/08/10 10:05:13;;;;;;;5.50;1.17;;;30.80;44.50;;;;;;5069932;28;20024;-66
2022/08/10 10:07:54;;;;;;;7.95;1.40;;;30.30;44.70;;;;;;5078978;28;20091;-67
2022/08/10 10:10:37;;;;;;;4.90;1.05;;;29.80;46.20;;;;;;5064609;28;20048;-67
2022/08/10 10:13:10;;;;;;;4.97;1.20;;;30.20;46.10;;;;;;5062701;28;20354;-66
2022/08/10 10:15:39;;;;;;;4.13;1.27;;;30.50;44.20;;;;;;5058851;28;20094;-67
2022/08/10 10:18:27;;;;;;;3.03;1.30;;;29.80;44.30;;;;;;5058974;28;20037;-66
2022/08/10 10:21:24;;;;;;;2.97;1.30;;;29.50;45.80;;;;;;5078938;28;20035;-66
2022/08/10 10:24:11;;;;;;;4.72;1.40;;;29.50;45.80;;;;;;5064339;28;20122;-67
2022/08/10 10:26:56;;;;;;;7.35;1.73;;;29.50;45.00;;;;;;5060041;28;20103;-67
2022/08/10 10:29:49;;;;;;;3.70;1.20;;;29.90;44.40;;;;;;5074741;28;20029;-66
2022/08/10 10:32:33;;;;;;;6.55;1.58;;;30.30;45.10;;;;;;5069589;28;20025;-65
2022/08/10 10:35:03;;;;;;;4.28;1.30;;;30.30;44.20;;;;;;5066405;28;20103;-66
2022/08/10 10:37:31;;;;;;;3.22;1.27;;;30.40;45.00;;;;;;5058437;28;20060;-67
2022/08/10 10:39:59;;;;;;;3.22;1.20;;;31.00;43.80;;;;;;5070411;28;20028;-67
2022/08/10 10:43:02;;;;;;;4.07;1.02;;;31.40;43.50;;;;;;5076553;28;20060;-67
2022/08/10 10:45:48;;;;;;;4.20;1.20;;;31.20;44.40;;;;;;5060992;28;20041;-66
2022/08/10 10:48:51;;;;;;;5.65;1.20;;;31.60;43.80;;;;;;5058312;28;20019;-67
2022/08/10 10:51:27;;;;;;;3.65;1.15;;;31.40;43.50;;;;;;5057696;28;20033;-67
2022/08/10 10:54:09;;;;;;;2.65;1.10;;;31.40;44.00;;;;;;5063451;28;20048;-66
2022/08/10 10:56:52;;;;;;;3.55;1.10;;;31.60;44.00;;;;;;5056968;28;20031;-66
2022/08/10 10:59:18;;;;;;;4.63;1.20;;;31.50;42.90;;;;;;5058762;28;20091;-66
2022/08/10 11:01:53;;;;;;;4.05;1.10;;;31.10;43.00;;;;;;5060069;28;20040;-67
2022/08/10 11:04:44;;;;;;;4.22;1.42;;;30.90;44.30;;;;;;5073398;28;20033;-66
2022/08/10 11:07:47;;;;;;;7.00;1.45;;;31.00;43.50;;;;;;5065798;28;20472;-67
2022/08/10 11:10:22;;;;;;;3.38;1.10;;;30.50;44.40;;;;;;5066490;28;20036;-67
2022/08/10 11:12:47;;;;;;;4.63;1.55;;;30.80;44.70;;;;;;5067188;28;20028;-66
2022/08/10 11:15:37;;;;;;;8.65;1.20;;;31.10;44.50;;;;;;5071700;28;20035;-66
2022/08/10 11:18:10;;;;;;;4.47;1.23;;;30.90;44.60;;;;;;5076385;28;20286;-67
2022/08/10 11:20:58;;;;;;;3.40;1.40;;;31.30;44.80;;;;;;5065795;28;20029;-66
2022/08/10 11:23:56;;;;;;;4.00;1.27;;;31.30;43.40;;;;;;5072790;28;21147;-65
2022/08/10 11:26:35;;;;;;;4.80;1.40;;;31.30;43.20;;;;;;5068774;28;20111;-65
2022/08/10 11:29:12;;;;;;;7.32;1.38;;;30.80;43.90;;;;;;5071595;28;20031;-67
2022/08/10 11:31:56;;;;;;;2.25;1.08;;;30.60;44.80;;;;;;5060025;28;20499;-66
2022/08/10 11:34:30;;;;;;;4.03;1.30;;;30.40;45.40;;;;;;5068318;28;20059;-65
2022/08/10 11:37:09;;;;;;;3.65;1.35;;;30.60;45.80;;;;;;5068271;28;20346;-66
2022/08/10 11:39:46;;;;;;;6.43;1.48;;;30.80;44.80;;;;;;5074791;28;20237;-66
2022/08/10 11:42:30;;;;;;;4.32;1.30;;;30.70;44.50;;;;;;5071052;28;20033;-66
2022/08/10 11:45:04;;;;;;;6.78;1.30;;;30.60;45.00;;;;;;5073065;28;20025;-66
2022/08/10 11:47:49;;;;;;;4.38;1.20;;;30.80;44.60;;;;;;5074522;28;20111;-67
2022/08/10 11:50:24;;;;;;;7.75;1.58;;;31.00;44.20;;;;;;5073681;28;20163;-67
2022/08/10 11:53:14;;;;;;;2.75;1.10;;;31.10;44.70;;;;;;5075079;28;20417;-66
2022/08/10 11:55:48;;;;;;;3.63;1.10;;;31.00;43.70;;;;;;5071823;28;20345;-67
2022/08/10 12:01:05;;;;;;;5.03;1.30;;;30.70;45.10;;;;;;5073853;28;20058;-65
2022/08/10 12:03:31;;;;;;;5.35;1.40;;;30.50;45.50;;;;;;5072817;28;20035;-66
2022/08/10 12:05:58;;;;;;;3.10;1.45;;;30.60;45.20;;;;;;5063739;28;20028;-66
2022/08/10 12:08:28;;;;;;;4.85;1.30;;;30.80;45.90;;;;;;5064086;28;20529;-65
2022/08/10 12:10:54;;;;;;;4.47;1.15;;;30.80;45.60;;;;;;5063320;28;20044;-66
2022/08/10 12:13:35;;;;;;;5.70;1.35;;;30.80;44.90;;;;;;5063602;28;20317;-65
2022/08/10 12:16:03;;;;;;;6.53;1.60;;;30.80;45.10;;;;;;5076096;28;20078;-66
2022/08/10 12:18:52;;;;;;;5.30;1.30;;;30.90;44.20;;;;;;5068811;28;20032;-66
2022/08/10 12:21:30;;;;;;;5.47;1.30;;;30.60;44.10;;;;;;5067209;28;20043;-66
2022/08/10 12:24:01;;;;;;;5.40;1.60;;;30.40;44.60;;;;;;5069766;28;20321;-67
2022/08/10 12:26:38;;;;;;;4.10;1.30;;;30.20;44.70;;;;;;5072281;28;20035;-67
2022/08/10 12:29:20;;;;;;;5.35;1.38;;;30.40;45.60;;;;;;5065458;28;20029;-67
2022/08/10 12:32:08;;;;;;;3.40;1.52;;;30.20;44.90;;;;;;5055550;28;20109;-67
2022/08/10 12:35:15;;;;;;;3.03;1.10;;;30.60;45.70;;;;;;5057970;28;20051;-67
2022/08/10 12:38:29;;;;;;;3.78;1.30;;;30.80;45.40;;;;;;5061557;28;20040;-67
2022/08/10 12:40:58;;;;;;;3.10;1.40;;;30.20;44.60;;;;;;5025869;28;20033;-67
2022/08/10 12:43:49;;;;;;;5.07;1.42;;;30.00;45.80;;;;;;5025705;28;20445;-66
2022/08/10 12:46:35;;;;;;;4.80;1.60;;;30.30;45.10;;;;;;5048616;28;20453;-65
2022/08/10 12:49:10;;;;;;;5.35;1.55;;;30.70;44.90;;;;;;5071772;28;20348;-67
2022/08/10 12:51:45;;;;;;;5.10;1.23;;;30.50;45.10;;;;;;5064467;28;20028;-66
2022/08/10 12:54:18;;;;;;;7.75;1.42;;;30.60;45.70;;;;;;5063883;28;20032;-67
2022/08/10 12:56:51;;;;;;;4.67;1.33;;;30.90;46.30;;;;;;5075008;28;20029;-67
2022/08/10 12:59:18;;;;;;;5.03;1.50;;;31.40;45.20;;;;;;5073884;28;20070;-67
2022/08/10 13:01:51;;;;;;;3.85;1.48;;;31.80;45.10;;;;;;5072728;28;20325;-67
2022/08/10 13:04:33;;;;;;;5.07;1.33;;;31.80;45.40;;;;;;5067129;28;20039;-67
2022/08/10 13:07:01;;;;;;;7.00;1.40;;;31.60;44.40;;;;;;5073446;28;20372;-67
2022/08/10 13:09:27;;;;;;;4.40;1.30;;;31.70;44.50;;;;;;5068303;28;20033;-67
2022/08/10 13:11:53;;;;;;;3.55;1.20;;;31.50;44.90;;;;;;5073742;28;20025;-67
2022/08/10 13:14:53;;;;;;;4.47;1.27;;;31.80;44.10;;;;;;5075422;28;20051;-67
2022/08/10 13:17:31;;;;;;;5.40;1.38;;;31.50;45.80;;;;;;5060857;28;20071;-66
2022/08/10 13:20:00;;;;;;;7.15;1.40;;;31.40;45.60;;;;;;5064584;28;20104;-67
2022/08/10 13:22:29;;;;;;;4.60;1.50;;;31.50;44.90;;;;;;5054993;28;20367;-67
2022/08/10 13:24:59;;;;;;;5.00;1.30;;;31.50;45.80;;;;;;5060702;28;20020;-67